Elazig, Turkey

9:08 AM EEST on September 21, 2014 (GMT +0300)
Elazig | Change Station
CLOSE
Current Station
Airport
Location: Elazig,
Elevation: 2894 ft
Nearby Weather Stations

Elev 2894 ft 38.61 °N, 39.29 °E | Updated 18 minutes ago

Clear
Clear
66 °F
Feels Like 66 °F
N
9
Wind Variable Wind from WNW

Today
High -- | Low -- °F
--% Chance of Precip.
Yesterday
High -- | Low -- °F
Precip. -- in
6:09 AM 6:22 PM
Waning Crescent, 8% visible
Pressure 29.95 in
Visibility -9999.0 miles
Clouds
Dew Point 41 °F
Humidity 40%
Rainfall 0.00 in
Snow Depth Not available.
UV Not available.
Pollen Not available.
Air Quality Not available.
Flu Activity Not available.
METAR LTCA 210550Z 29008KT 220V320 CAVOK 19/05 Q1014 NOSIG

More Conditions Fewer Conditions

Pressure 29.95 in
Visibility -9999.0 miles
Clouds
Dew Point 41 °F
Humidity 40%
Rainfall 0.00 in
Snow Depth Not available.
UV Not available.
Pollen Not available.
Air Quality Not available.
Flu Activity Not available.
METAR LTCA 210550Z 29008KT 220V320 CAVOK 19/05 Q1014 NOSIG

More Conditions Fewer Conditions

10-Day Weather Forecast

Almanac

Astronomy

Sep. 21, 2014 Rise Set
Actual Time 6:09 AM EEST 6:22 PM EEST
Civil Twilight 5:42 AM EEST 6:48 PM EEST
Nautical Twilight 5:11 AM EEST 7:19 PM EEST
Astronomical Twilight 4:40 AM EEST 7:50 PM EEST
Moon 3:25 AM EEST 4:45 PM EEST
Length of Visible Light 13h 05m
Length of Day
12h 12m
Tomorrow will be 2m 29s shorter.
Waning Crescent, 8% of the Moon is Illuminated
Today
Waning Crescent
Sep 24
New
Oct 1
First Quarter
Oct 8
Full
Oct 15
Last Quarter

Yesterday's Extremes

Country Highs Country Lows

Community

WunderPhotos

Upload Photos

1,755,098 photos uploaded!

Nearby

Snow Depth

Not available.

Earthquake Activity

City Distance Mag. Time & Date
No recent earthquake activity has been reported nearby.
Minimum magnitude displayed is 2.5.

Coastal Water Temperatures

Place Temperature
No Stations Reporting

Nearby Weather Stations